Time;durP1;ratioP1;P1;durP2;ratioP2;P2;SDS_P1;SDS_P2;PMS_P1;PMS_P2;Temp;Humidity;BMP_temperature;BMP_pressure;BME280_temperature;BME280_humidity;BME280_pressure;Samples;Min_cycle;Max_cycle;Signal;HPM_P1;HPM_P2
2022/10/03 00:02:45;;;;;;;7.47;1.95;;;10.00;99.90;;;;;;5033675;28;20396;-65
2022/10/03 00:05:26;;;;;;;12.00;3.42;;;10.10;99.90;;;;;;5034919;28;20043;-64
2022/10/03 00:08:08;;;;;;;8.10;2.72;;;9.80;99.90;;;;;;5033435;28;20045;-64
2022/10/03 00:10:53;;;;;;;7.63;2.03;;;9.90;99.90;;;;;;5035019;28;20037;-64
2022/10/03 00:13:36;;;;;;;7.28;3.22;;;9.90;99.90;;;;;;5033353;28;20094;-64
2022/10/03 00:16:10;;;;;;;6.45;1.95;;;10.00;99.90;;;;;;5033219;28;20508;-64
2022/10/03 00:18:35;;;;;;;9.00;2.00;;;9.90;99.90;;;;;;5033618;28;20041;-64
2022/10/03 00:21:36;;;;;;;8.30;2.35;;;9.90;99.90;;;;;;5034526;28;20237;-64
2022/10/03 00:24:18;;;;;;;13.75;2.47;;;9.90;99.90;;;;;;5023696;28;20478;-64
2022/10/03 00:26:44;;;;;;;13.50;3.13;;;;;;;;;;5030009;28;20042;-65
2022/10/03 00:29:13;;;;;;;8.75;2.25;;;9.80;99.90;;;;;;5027121;28;20052;-64
2022/10/03 00:31:57;;;;;;;10.07;2.13;;;9.50;99.90;;;;;;5033312;28;20476;-64
2022/10/03 00:34:29;;;;;;;5.00;2.08;;;9.80;99.90;;;;;;5033099;28;20049;-64
2022/10/03 00:37:23;;;;;;;11.82;2.22;;;9.40;99.90;;;;;;5027446;28;20060;-64
2022/10/03 00:40:02;;;;;;;9.25;2.05;;;9.50;99.90;;;;;;5034043;28;20438;-64
2022/10/03 00:43:05;;;;;;;6.78;2.63;;;9.60;99.90;;;;;;5034179;28;20039;-64
2022/10/03 00:46:00;;;;;;;9.95;2.83;;;9.70;99.90;;;;;;5012384;28;20128;-64
2022/10/03 00:48:38;;;;;;;9.63;3.10;;;9.50;99.90;;;;;;4983799;28;20057;-64
2022/10/03 00:51:18;;;;;;;6.32;2.25;;;9.60;99.90;;;;;;5031789;28;20104;-64
2022/10/03 00:54:07;;;;;;;13.85;2.50;;;9.70;99.90;;;;;;5032723;28;20048;-64
2022/10/03 00:56:38;;;;;;;11.05;2.50;;;;;;;;;;5032792;28;20088;-64
2022/10/03 00:59:20;;;;;;;7.47;2.20;;;9.60;99.90;;;;;;5033856;28;20056;-64
2022/10/03 01:01:48;;;;;;;7.45;2.15;;;9.60;99.90;;;;;;5012862;28;20053;-64
2022/10/03 01:04:48;;;;;;;11.60;2.60;;;9.90;99.90;;;;;;5027235;28;20048;-64
2022/10/03 01:07:55;;;;;;;11.63;2.20;;;9.70;99.90;;;;;;5022652;28;20041;-64
2022/10/03 01:10:44;;;;;;;6.75;1.73;;;9.80;99.90;;;;;;5020228;28;20117;-64
2022/10/03 01:13:37;;;;;;;12.00;2.85;;;9.70;99.90;;;;;;5033460;28;20492;-64
2022/10/03 01:16:27;;;;;;;8.77;2.38;;;9.80;99.90;;;;;;5033435;28;20092;-64
2022/10/03 01:19:06;;;;;;;7.90;2.70;;;9.80;99.90;;;;;;5019956;28;20041;-64
2022/10/03 01:21:52;;;;;;;9.00;2.28;;;9.70;99.90;;;;;;5032230;28;20127;-64
2022/10/03 01:24:30;;;;;;;10.80;2.15;;;9.80;99.90;;;;;;5032542;28;20041;-64
2022/10/03 01:27:10;;;;;;;12.65;3.00;;;9.60;99.90;;;;;;5032267;28;20064;-64
2022/10/03 01:30:23;;;;;;;8.13;2.58;;;9.70;99.90;;;;;;5032350;28;20048;-64
2022/10/03 01:33:01;;;;;;;14.57;2.30;;;9.70;99.90;;;;;;4937103;29;20047;-64
2022/10/03 01:35:46;;;;;;;16.60;2.72;;;9.70;99.90;;;;;;5028702;28;20442;-64
2022/10/03 01:38:39;;;;;;;10.90;2.60;;;9.70;99.90;;;;;;5031938;28;20064;-64
2022/10/03 01:41:10;;;;;;;6.00;2.03;;;9.80;99.90;;;;;;5021578;28;20045;-64
2022/10/03 01:43:50;;;;;;;8.88;2.42;;;9.80;99.90;;;;;;5031625;28;20068;-64
2022/10/03 01:46:32;;;;;;;8.75;2.53;;;9.80;99.90;;;;;;5028702;28;20550;-64
2022/10/03 01:49:07;;;;;;;11.07;3.55;;;9.90;99.90;;;;;;5029208;28;20076;-64
2022/10/03 01:52:03;;;;;;;6.80;1.73;;;9.80;99.90;;;;;;5031868;28;20107;-64
2022/10/03 01:54:38;;;;;;;8.27;1.88;;;9.80;99.90;;;;;;5031719;28;20050;-64
2022/10/03 01:57:07;;;;;;;;;;;9.70;99.90;;;;;;5032221;28;20068;-64
2022/10/03 02:00:00;;;;;;;12.75;2.40;;;9.80;99.90;;;;;;5032774;28;19979;-64
2022/10/03 02:03:07;;;;;;;8.20;2.00;;;9.80;99.90;;;;;;5032477;28;20065;-64
2022/10/03 02:06:02;;;;;;;7.72;1.80;;;9.80;99.90;;;;;;5003010;28;20118;-64
2022/10/03 02:08:34;;;;;;;6.88;1.80;;;9.80;99.90;;;;;;5021818;28;20033;-64
2022/10/03 02:11:08;;;;;;;7.15;1.83;;;9.60;99.90;;;;;;5032795;28;20503;-64
2022/10/03 02:13:37;;;;;;;9.90;2.33;;;;;;;;;;5032747;28;20038;-64
2022/10/03 02:16:30;;;;;;;7.22;2.40;;;9.80;99.90;;;;;;5031290;28;20064;-64
2022/10/03 02:19:20;;;;;;;13.00;2.35;;;9.70;99.90;;;;;;5031481;28;20043;-64
2022/10/03 02:21:51;;;;;;;12.82;2.72;;;9.80;99.90;;;;;;5018135;28;20081;-64
2022/10/03 02:24:35;;;;;;;7.60;1.80;;;9.80;99.90;;;;;;5031487;28;20431;-64
2022/10/03 02:27:21;;;;;;;7.32;1.90;;;9.90;99.90;;;;;;5019404;28;20045;-64
2022/10/03 02:30:12;;;;;;;8.32;2.00;;;9.70;99.90;;;;;;5014739;28;20041;-64
2022/10/03 02:32:59;;;;;;;11.43;2.20;;;9.70;99.90;;;;;;5031617;28;20049;-64
2022/10/03 02:35:52;;;;;;;14.23;2.20;;;9.70;99.90;;;;;;5018474;28;20045;-64
2022/10/03 02:38:36;;;;;;;11.50;2.25;;;9.80;99.90;;;;;;4988945;28;20507;-64
2022/10/03 02:41:12;;;;;;;4.55;2.03;;;9.60;99.90;;;;;;5031504;28;20406;-65
2022/10/03 02:44:15;;;;;;;7.68;1.65;;;9.60;99.90;;;;;;5032270;28;20029;-64
2022/10/03 02:46:49;;;;;;;7.93;2.20;;;9.80;99.90;;;;;;5031365;28;20120;-64
2022/10/03 02:49:51;;;;;;;6.82;1.65;;;9.60;99.90;;;;;;5032502;28;20084;-64
2022/10/03 02:52:39;;;;;;;9.00;1.90;;;9.70;99.90;;;;;;5031040;28;20057;-64
2022/10/03 02:55:23;;;;;;;9.65;1.77;;;9.80;99.90;;;;;;5032703;28;20045;-63
2022/10/03 02:58:32;;;;;;;12.13;2.53;;;9.60;99.90;;;;;;5031047;28;20051;-64
2022/10/03 03:01:16;;;;;;;10.95;1.98;;;9.60;99.90;;;;;;5032253;28;20121;-64
2022/10/03 03:04:21;;;;;;;7.45;2.88;;;9.70;99.90;;;;;;5031058;28;20107;-63
2022/10/03 03:07:13;;;;;;;8.70;1.92;;;9.70;99.90;;;;;;5020064;28;20047;-63
2022/10/03 03:09:42;;;;;;;7.90;2.15;;;9.70;99.90;;;;;;5031051;28;20069;-63
2022/10/03 03:12:36;;;;;;;12.15;2.25;;;9.60;99.90;;;;;;5032232;28;20041;-64
2022/10/03 03:15:20;;;;;;;8.32;2.13;;;9.80;99.90;;;;;;5020759;28;20053;-64
2022/10/03 03:18:00;;;;;;;8.40;2.20;;;9.80;99.90;;;;;;5017937;28;20095;-64
2022/10/03 03:20:52;;;;;;;7.57;1.98;;;9.80;99.90;;;;;;5035813;28;20041;-64
2022/10/03 03:23:46;;;;;;;10.20;1.92;;;9.70;99.90;;;;;;5035682;28;20132;-64
2022/10/03 03:26:26;;;;;;;10.35;1.83;;;9.60;99.90;;;;;;5035610;28;20396;-64
2022/10/03 03:29:15;;;;;;;7.07;2.10;;;9.60;99.90;;;;;;5034311;28;20055;-64
2022/10/03 03:32:05;;;;;;;9.00;1.60;;;9.60;99.90;;;;;;5034309;28;20041;-64
2022/10/03 03:34:58;;;;;;;6.03;2.00;;;9.70;99.90;;;;;;5034116;28;20130;-64
2022/10/03 03:37:35;;;;;;;4.85;1.80;;;9.70;99.90;;;;;;5034134;28;20045;-64
2022/10/03 03:40:15;;;;;;;10.18;2.20;;;9.60;99.90;;;;;;5035399;28;20038;-64
2022/10/03 03:42:53;;;;;;;7.85;2.05;;;9.50;99.90;;;;;;5033958;28;20053;-64
2022/10/03 03:45:37;;;;;;;7.93;1.77;;;9.70;99.90;;;;;;5035294;28;20451;-65
2022/10/03 03:48:38;;;;;;;5.80;2.55;;;9.60;99.90;;;;;;5035348;28;20179;-64
2022/10/03 03:51:15;;;;;;;8.52;1.83;;;9.40;99.90;;;;;;5033940;28;20045;-64
2022/10/03 03:54:00;;;;;;;16.25;4.82;;;9.40;99.90;;;;;;5035221;28;20045;-64
2022/10/03 03:56:26;;;;;;;4.43;1.50;;;9.20;99.90;;;;;;5021703;28;20407;-64
2022/10/03 03:59:03;;;;;;;7.78;2.10;;;9.40;99.90;;;;;;5033723;28;20283;-64
2022/10/03 04:01:48;;;;;;;5.18;1.80;;;9.20;99.90;;;;;;5017338;28;20076;-64
2022/10/03 04:04:32;;;;;;;;;;;9.40;99.90;;;;;;5033930;28;20044;-64
2022/10/03 04:07:20;;;;;;;9.07;1.80;;;9.30;99.90;;;;;;5034991;28;20007;-64
2022/10/03 04:09:56;;;;;;;10.07;1.98;;;9.20;99.90;;;;;;5033661;28;20045;-64
2022/10/03 04:13:00;;;;;;;7.43;2.00;;;9.40;99.90;;;;;;5033491;28;20087;-64
2022/10/03 04:15:47;;;;;;;7.13;2.10;;;9.40;99.90;;;;;;5024975;28;20529;-64
2022/10/03 04:18:57;;;;;;;8.60;2.10;;;9.50;99.90;;;;;;5034590;28;20038;-64
2022/10/03 04:21:44;;;;;;;7.43;1.80;;;9.40;99.90;;;;;;5033360;28;20049;-64
2022/10/03 04:24:37;;;;;;;9.43;1.67;;;9.40;99.90;;;;;;5034661;28;20107;-64
2022/10/03 04:27:23;;;;;;;8.90;2.03;;;9.50;99.90;;;;;;5022633;28;20029;-64
2022/10/03 04:30:17;;;;;;;6.65;2.22;;;9.50;99.90;;;;;;5033098;28;20045;-64
2022/10/03 04:33:15;;;;;;;7.70;2.40;;;9.40;99.90;;;;;;5034298;28;20041;-64
2022/10/03 04:36:11;;;;;;;7.35;1.90;;;9.40;99.90;;;;;;4993819;28;20058;-64
2022/10/03 04:38:58;;;;;;;10.88;1.92;;;9.40;99.90;;;;;;5016466;28;20521;-64
2022/10/03 04:41:49;;;;;;;9.18;1.67;;;9.50;99.90;;;;;;5032989;28;20099;-64
2022/10/03 04:44:28;;;;;;;7.15;1.60;;;9.50;99.90;;;;;;5018126;28;20381;-64
2022/10/03 04:47:12;;;;;;;5.20;1.67;;;9.40;99.90;;;;;;5033087;28;20411;-64
2022/10/03 04:49:44;;;;;;;5.07;1.67;;;9.50;99.90;;;;;;5033105;28;20395;-64
2022/10/03 04:52:38;;;;;;;4.85;2.13;;;9.50;99.90;;;;;;5033897;28;20041;-64
2022/10/03 04:55:34;;;;;;;5.70;1.77;;;9.40;99.90;;;;;;5032659;28;20045;-64
2022/10/03 04:58:19;;;;;;;;;;;9.50;99.90;;;;;;5021184;28;20038;-64
2022/10/03 05:00:51;;;;;;;7.57;2.15;;;9.30;99.90;;;;;;5033696;28;20388;-64
2022/10/03 05:03:54;;;;;;;5.97;1.90;;;9.40;99.90;;;;;;5032493;28;20076;-64
2022/10/03 05:06:51;;;;;;;4.63;1.92;;;9.20;99.90;;;;;;5032416;28;20037;-64
2022/10/03 05:09:38;;;;;;;5.15;2.15;;;9.30;99.90;;;;;;5033603;28;20037;-64
2022/10/03 05:12:42;;;;;;;4.70;1.73;;;9.30;99.90;;;;;;5032274;28;20130;-64
2022/10/03 05:15:10;;;;;;;3.08;1.58;;;9.30;99.90;;;;;;5021327;28;20407;-64
2022/10/03 05:17:49;;;;;;;6.22;1.95;;;9.20;99.90;;;;;;5033421;28;20530;-64
2022/10/03 05:20:27;;;;;;;4.82;1.70;;;9.20;99.90;;;;;;5020138;28;20052;-64
2022/10/03 05:23:01;;;;;;;4.82;1.30;;;9.10;99.90;;;;;;5032055;28;20045;-64
2022/10/03 05:25:52;;;;;;;3.00;1.50;;;9.20;99.90;;;;;;5032653;28;20041;-64
2022/10/03 05:28:29;;;;;;;4.65;2.13;;;9.00;99.90;;;;;;5033333;28;20308;-64
2022/10/03 05:31:22;;;;;;;3.35;1.60;;;9.00;99.90;;;;;;5032080;28;20042;-65
2022/10/03 05:34:19;;;;;;;3.63;1.10;;;9.00;99.90;;;;;;5032009;28;20037;-64
2022/10/03 05:36:54;;;;;;;3.67;1.38;;;9.00;99.90;;;;;;5032769;28;20034;-64
2022/10/03 05:39:46;;;;;;;4.78;1.50;;;9.00;99.90;;;;;;5033523;28;20046;-64
2022/10/03 05:42:51;;;;;;;3.72;1.55;;;9.00;99.90;;;;;;5019798;28;20073;-64
2022/10/03 05:45:29;;;;;;;6.38;1.70;;;8.90;99.90;;;;;;5016045;28;20045;-64
2022/10/03 05:48:18;;;;;;;5.68;1.77;;;8.90;99.90;;;;;;5020637;28;20041;-64
2022/10/03 05:51:32;;;;;;;2.65;1.75;;;9.00;99.90;;;;;;5033176;28;20438;-64
2022/10/03 05:53:58;;;;;;;7.07;1.77;;;9.00;99.90;;;;;;5032942;28;20045;-64
2022/10/03 05:56:57;;;;;;;5.53;1.80;;;9.00;99.90;;;;;;5033215;28;20391;-64
2022/10/03 05:59:53;;;;;;;5.15;1.73;;;9.00;99.90;;;;;;5032958;28;20045;-64
2022/10/03 06:02:56;;;;;;;7.13;1.90;;;9.30;99.90;;;;;;5025121;28;20042;-65
2022/10/03 06:05:58;;;;;;;8.52;2.15;;;9.10;99.90;;;;;;5025692;28;20049;-64
2022/10/03 06:08:40;;;;;;;5.55;2.20;;;9.00;99.90;;;;;;5038826;28;20046;-64
2022/10/03 06:11:25;;;;;;;6.22;2.03;;;9.10;99.90;;;;;;5028201;28;20120;-64
2022/10/03 06:14:18;;;;;;;4.63;1.98;;;9.20;99.90;;;;;;5031193;28;20052;-64
2022/10/03 06:16:54;;;;;;;6.72;2.33;;;9.10;99.90;;;;;;5025096;28;20412;-64
2022/10/03 06:19:34;;;;;;;7.28;2.15;;;9.30;99.90;;;;;;5031502;28;20064;-64
2022/10/03 06:22:20;;;;;;;4.43;2.22;;;9.40;99.90;;;;;;5031432;28;20054;-64
2022/10/03 06:24:54;;;;;;;4.75;2.20;;;9.20;99.90;;;;;;5029505;28;20029;-63
2022/10/03 06:27:42;;;;;;;3.88;2.28;;;9.20;99.90;;;;;;5030998;28;20045;-63
2022/10/03 06:30:15;;;;;;;7.25;1.90;;;9.30;99.90;;;;;;5031381;28;20095;-64
2022/10/03 06:33:18;;;;;;;9.27;2.47;;;9.30;99.90;;;;;;5031252;28;20480;-64
2022/10/03 06:36:39;;;;;;;4.85;2.10;;;9.40;99.90;;;;;;5025871;28;20124;-64
2022/10/03 06:39:22;;;;;;;3.88;2.25;;;9.30;99.90;;;;;;4988807;28;20513;-64
2022/10/03 06:42:06;;;;;;;4.70;2.08;;;9.50;99.90;;;;;;5030573;28;20080;-64
2022/10/03 06:44:47;;;;;;;10.80;2.72;;;9.50;99.90;;;;;;5029678;28;20420;-64
2022/10/03 06:47:21;;;;;;;5.07;2.10;;;9.60;99.90;;;;;;5030915;28;20159;-63
2022/10/03 06:50:26;;;;;;;5.63;2.13;;;9.70;99.90;;;;;;5033896;28;20042;-64
2022/10/03 06:53:00;;;;;;;11.05;3.33;;;9.50;99.90;;;;;;5029399;28;20057;-64
2022/10/03 06:55:41;;;;;;;10.65;2.80;;;9.80;99.90;;;;;;5036019;28;20044;-64
2022/10/03 06:58:31;;;;;;;8.38;2.65;;;9.80;99.90;;;;;;5030358;28;20095;-64
2022/10/03 07:01:13;;;;;;;8.98;2.47;;;9.90;99.90;;;;;;5017667;28;20049;-64
2022/10/03 07:04:18;;;;;;;8.30;3.50;;;10.00;99.90;;;;;;5034579;28;20077;-64
2022/10/03 07:07:10;;;;;;;9.98;2.90;;;10.00;99.90;;;;;;5026761;28;20045;-63
2022/10/03 07:09:48;;;;;;;7.25;2.63;;;;;;;;;;5033705;28;20395;-64
2022/10/03 07:12:17;;;;;;;9.20;2.78;;;10.10;99.90;;;;;;5034174;28;20049;-64
2022/10/03 07:15:04;;;;;;;4.82;2.33;;;10.30;99.90;;;;;;5035288;28;20049;-64
2022/10/03 07:17:37;;;;;;;12.02;3.25;;;10.40;99.90;;;;;;5029282;28;20057;-60
2022/10/03 07:20:43;;;;;;;10.77;3.10;;;10.50;99.90;;;;;;5034063;28;20068;-64
2022/10/03 07:23:39;;;;;;;8.73;2.95;;;10.60;99.90;;;;;;5031448;28;20434;-65
2022/10/03 07:26:39;;;;;;;5.22;2.33;;;10.70;99.90;;;;;;5034122;28;20042;-65
2022/10/03 07:29:20;;;;;;;10.63;3.17;;;11.00;99.90;;;;;;5016890;28;20046;-64
2022/10/03 07:32:14;;;;;;;13.15;3.13;;;11.00;99.90;;;;;;5034368;28;20041;-66
2022/10/03 07:35:05;;;;;;;11.40;2.97;;;11.50;99.90;;;;;;5028731;28;20053;-65
2022/10/03 07:40:47;;;;;;;5.97;2.30;;;11.60;99.90;;;;;;5027010;28;20045;-65
2022/10/03 07:43:18;;;;;;;7.20;4.18;;;11.70;99.90;;;;;;5029779;28;20052;-64
2022/10/03 07:46:21;;;;;;;7.80;2.80;;;11.90;99.90;;;;;;5033915;28;20025;-64
2022/10/03 07:49:10;;;;;;;8.25;2.65;;;12.00;99.90;;;;;;5034137;28;20037;-65
2022/10/03 07:51:52;;;;;;;12.32;2.90;;;12.50;99.90;;;;;;5034096;28;20068;-64
2022/10/03 07:54:24;;;;;;;7.35;2.58;;;12.60;99.90;;;;;;5034896;28;20472;-64
2022/10/03 07:57:11;;;;;;;7.65;2.53;;;12.70;99.90;;;;;;5035128;28;20044;-65
2022/10/03 07:59:56;;;;;;;8.40;2.35;;;12.70;99.90;;;;;;5034426;28;20065;-64
2022/10/03 08:02:32;;;;;;;;;;;13.00;99.90;;;;;;5035444;28;20508;-65
2022/10/03 08:05:20;;;;;;;8.52;2.40;;;12.90;99.90;;;;;;5034941;28;20322;-65
2022/10/03 08:08:04;;;;;;;10.38;2.70;;;13.00;99.90;;;;;;5017026;28;20042;-65
2022/10/03 08:11:03;;;;;;;10.98;3.00;;;13.20;99.90;;;;;;5035007;28;20037;-64
2022/10/03 08:14:20;;;;;;;9.18;2.22;;;13.70;99.90;;;;;;5021581;28;20041;-65
2022/10/03 08:17:07;;;;;;;10.98;2.13;;;13.90;99.90;;;;;;4978532;28;20081;-65
2022/10/03 08:19:50;;;;;;;10.40;2.15;;;14.30;99.90;;;;;;5033344;28;20124;-65
2022/10/03 08:22:54;;;;;;;8.98;2.47;;;14.50;99.90;;;;;;5033266;28;20411;-65
2022/10/03 08:25:38;;;;;;;7.03;1.85;;;14.90;99.90;;;;;;5030233;28;20034;-65
2022/10/03 08:28:41;;;;;;;6.75;2.17;;;14.90;99.90;;;;;;5030480;28;20042;-65
2022/10/03 08:31:35;;;;;;;8.90;2.70;;;15.50;99.90;;;;;;5033093;28;20476;-65
2022/10/03 08:34:37;;;;;;;7.97;1.83;;;16.20;99.90;;;;;;5023614;28;20064;-65
2022/10/03 08:37:06;;;;;;;7.72;1.90;;;16.20;99.90;;;;;;4989899;28;20077;-65
2022/10/03 08:39:52;;;;;;;9.38;1.92;;;16.20;99.90;;;;;;5032944;28;20045;-65
2022/10/03 08:42:42;;;;;;;4.40;1.40;;;16.50;99.90;;;;;;5020438;28;20251;-65
2022/10/03 08:45:45;;;;;;;8.13;1.73;;;16.60;99.90;;;;;;5034066;28;20377;-64
2022/10/03 08:48:32;;;;;;;12.43;2.22;;;16.30;99.90;;;;;;5022592;28;20083;-65
2022/10/03 08:51:25;;;;;;;10.85;1.70;;;16.20;99.90;;;;;;5032952;28;20041;-65
2022/10/03 08:54:16;;;;;;;6.18;1.33;;;16.20;99.90;;;;;;5033814;28;20041;-65
2022/10/03 08:57:10;;;;;;;7.47;1.45;;;15.90;99.90;;;;;;5032780;28;20051;-65
2022/10/03 09:00:09;;;;;;;11.32;1.60;;;16.70;99.90;;;;;;5032777;28;20038;-65
2022/10/03 09:02:50;;;;;;;9.00;1.25;;;17.30;99.90;;;;;;5032760;28;20045;-65
2022/10/03 09:05:34;;;;;;;6.95;1.13;;;17.40;99.90;;;;;;5032710;28;20107;-65
2022/10/03 09:08:18;;;;;;;8.05;1.77;;;17.90;99.90;;;;;;5032709;28;20423;-65
2022/10/03 09:11:04;;;;;;;5.07;0.90;;;18.90;99.90;;;;;;5032182;28;20041;-65
2022/10/03 09:13:51;;;;;;;7.45;1.20;;;19.20;99.90;;;;;;5021880;28;20610;-65
2022/10/03 09:16:38;;;;;;;10.80;1.40;;;19.50;99.90;;;;;;5033465;28;20042;-65
2022/10/03 09:19:15;;;;;;;5.18;1.85;;;20.30;99.90;;;;;;5032156;28;20069;-65
2022/10/03 09:22:11;;;;;;;6.78;1.25;;;20.30;99.90;;;;;;5033399;28;20049;-65
2022/10/03 09:24:39;;;;;;;8.90;1.30;;;21.70;99.90;;;;;;5032301;28;20075;-64
2022/10/03 09:27:43;;;;;;;5.60;1.17;;;23.00;99.90;;;;;;5032134;28;20091;-65
2022/10/03 09:30:42;;;;;;;8.18;1.60;;;23.80;99.90;;;;;;5033544;28;20041;-65
2022/10/03 09:33:38;;;;;;;9.20;1.00;;;25.10;99.90;;;;;;5032022;28;20049;-65
2022/10/03 09:36:17;;;;;;;7.47;0.80;;;25.10;99.90;;;;;;5032093;28;20080;-65
2022/10/03 09:39:09;;;;;;;5.15;0.65;;;25.50;99.90;;;;;;5032170;28;20137;-65
2022/10/03 09:41:56;;;;;;;8.40;0.75;;;26.00;99.90;;;;;;5009357;28;20089;-65
2022/10/03 09:44:47;;;;;;;4.82;0.50;;;26.00;99.90;;;;;;5032259;28;20041;-65
2022/10/03 09:47:35;;;;;;;5.38;0.93;;;26.20;99.90;;;;;;5031765;28;20164;-66
2022/10/03 09:50:20;;;;;;;4.75;0.60;;;25.90;99.90;;;;;;5033098;28;20048;-65
2022/10/03 09:53:01;;;;;;;4.57;0.55;;;26.40;99.90;;;;;;5031743;28;20053;-65
2022/10/03 09:56:00;;;;;;;7.68;0.77;;;26.60;99.90;;;;;;5032062;28;20060;-65
2022/10/03 09:59:09;;;;;;;4.95;0.55;;;26.60;99.90;;;;;;5022293;28;20100;-65
2022/10/03 10:01:47;;;;;;;5.70;1.00;;;26.50;99.90;;;;;;5008172;28;20056;-65
2022/10/03 10:04:31;;;;;;;9.77;0.50;;;26.30;99.90;;;;;;5031581;28;20049;-65
2022/10/03 10:07:34;;;;;;;8.10;0.73;;;24.60;99.90;;;;;;5031851;28;20047;-65
2022/10/03 10:10:18;;;;;;;4.82;0.65;;;23.90;99.90;;;;;;5031767;28;20044;-65
2022/10/03 10:13:15;;;;;;;4.43;0.95;;;22.90;99.90;;;;;;5032830;28;20442;-65
2022/10/03 10:16:08;;;;;;;5.07;0.90;;;22.30;99.90;;;;;;5032665;28;20084;-65
2022/10/03 10:18:38;;;;;;;6.70;0.93;;;21.50;99.90;;;;;;5020953;28;20057;-65
2022/10/03 10:21:24;;;;;;;6.80;0.98;;;21.00;99.90;;;;;;5031399;28;20053;-65
2022/10/03 10:24:18;;;;;;;6.88;0.60;;;20.80;99.90;;;;;;5035616;28;20041;-65
2022/10/03 10:27:18;;;;;;;3.78;1.05;;;20.30;99.90;;;;;;5035774;28;20050;-64
2022/10/03 10:30:02;;;;;;;6.25;0.70;;;20.40;99.90;;;;;;5036665;28;20084;-64
2022/10/03 10:33:05;;;;;;;5.50;0.60;;;19.90;99.90;;;;;;5035672;28;20103;-65
2022/10/03 10:36:05;;;;;;;7.85;1.30;;;19.70;99.90;;;;;;5036697;28;20038;-64
2022/10/03 10:39:08;;;;;;;4.85;1.00;;;19.50;99.90;;;;;;5035603;28;20454;-65
2022/10/03 10:42:13;;;;;;;6.88;1.10;;;19.20;99.90;;;;;;5036513;28;20049;-65
2022/10/03 10:44:57;;;;;;;8.52;1.10;;;19.10;99.90;;;;;;5001822;28;20057;-65
2022/10/03 10:47:41;;;;;;;7.95;1.10;;;18.80;99.90;;;;;;5035020;28;20053;-64
2022/10/03 10:50:28;;;;;;;5.07;0.70;;;18.80;99.90;;;;;;5036359;28;20041;-64
2022/10/03 10:53:27;;;;;;;4.57;0.68;;;18.60;99.90;;;;;;5005281;28;20283;-65
2022/10/03 10:56:05;;;;;;;8.20;1.08;;;18.60;99.90;;;;;;5036387;28;20049;-65
2022/10/03 10:59:22;;;;;;;3.70;0.85;;;18.50;99.90;;;;;;5035147;28;20075;-65
2022/10/03 11:02:13;;;;;;;4.20;1.10;;;18.40;99.90;;;;;;5025809;28;20135;-65
2022/10/03 11:04:51;;;;;;;6.22;1.00;;;18.10;99.90;;;;;;5036121;28;20038;-65
2022/10/03 11:07:36;;;;;;;8.43;0.95;;;18.20;99.90;;;;;;5035084;28;20045;-65
2022/10/03 11:10:32;;;;;;;9.00;1.10;;;18.00;99.90;;;;;;5023984;28;20091;-64
2022/10/03 11:13:42;;;;;;;8.15;1.00;;;18.30;99.90;;;;;;5007510;28;20092;-65
2022/10/03 11:16:42;;;;;;;4.07;0.90;;;18.50;99.90;;;;;;5035539;28;20045;-65
2022/10/03 11:19:46;;;;;;;9.35;1.02;;;18.10;99.90;;;;;;5034477;28;20052;-65
2022/10/03 11:22:43;;;;;;;5.57;0.80;;;18.10;99.90;;;;;;5004818;28;20050;-65
2022/10/03 11:25:50;;;;;;;5.55;1.00;;;18.30;99.90;;;;;;5034436;28;20091;-65
2022/10/03 11:28:43;;;;;;;5.60;0.77;;;18.00;99.90;;;;;;5002011;28;20064;-65
2022/10/03 11:31:45;;;;;;;7.57;1.15;;;18.00;99.90;;;;;;5034464;28;20053;-64
2022/10/03 11:34:26;;;;;;;6.72;1.10;;;18.30;99.90;;;;;;5016911;28;20084;-65
2022/10/03 11:36:54;;;;;;;7.38;1.10;;;17.90;99.90;;;;;;5034328;28;20045;-64
2022/10/03 11:39:31;;;;;;;6.13;1.13;;;17.90;99.90;;;;;;5034476;28;20423;-65
2022/10/03 11:42:15;;;;;;;6.18;1.10;;;17.90;99.90;;;;;;5033819;28;20472;-65
2022/10/03 11:45:02;;;;;;;6.82;0.80;;;17.70;99.90;;;;;;5035156;28;20044;-64
2022/10/03 11:47:34;;;;;;;7.40;1.33;;;17.90;99.90;;;;;;5035195;28;20065;-65
2022/10/03 11:50:17;;;;;;;7.43;0.80;;;17.70;99.90;;;;;;5034038;28;20041;-64
2022/10/03 11:52:43;;;;;;;4.57;1.00;;;17.90;99.90;;;;;;5035191;28;20045;-65
2022/10/03 11:55:23;;;;;;;10.70;1.02;;;17.70;99.90;;;;;;5034154;28;20099;-64
2022/10/03 11:58:05;;;;;;;9.52;1.67;;;17.70;99.90;;;;;;5035142;28;20040;-65
2022/10/03 12:00:35;;;;;;;6.72;1.20;;;17.40;99.90;;;;;;5035209;28;20034;-66
2022/10/03 12:03:19;;;;;;;4.93;0.80;;;17.40;99.90;;;;;;5035138;28;20546;-65
2022/10/03 12:09:18;;;;;;;4.90;1.13;;;17.30;99.90;;;;;;5034916;28;20046;-65
2022/10/03 12:12:07;;;;;;;8.57;1.10;;;17.30;99.90;;;;;;5034935;28;20049;-64
2022/10/03 12:14:45;;;;;;;3.80;0.82;;;17.30;99.90;;;;;;5034581;28;20052;-64
2022/10/03 12:17:32;;;;;;;6.78;1.13;;;17.30;99.90;;;;;;5034877;28;20037;-65
2022/10/03 12:20:39;;;;;;;8.80;1.33;;;17.40;99.90;;;;;;5034626;28;20550;-65
2022/10/03 12:23:33;;;;;;;4.45;1.05;;;17.30;99.90;;;;;;5028789;28;20053;-65
2022/10/03 12:26:02;;;;;;;7.53;1.13;;;17.30;99.90;;;;;;5033626;28;20045;-65
2022/10/03 12:28:41;;;;;;;7.95;1.20;;;17.40;99.90;;;;;;5034526;28;20046;-65
2022/10/03 12:31:22;;;;;;;4.57;0.80;;;17.30;99.90;;;;;;5034584;28;20443;-65
2022/10/03 12:33:57;;;;;;;6.43;0.90;;;17.50;99.90;;;;;;5021985;28;20064;-65
2022/10/03 12:36:30;;;;;;;5.88;1.15;;;17.50;99.90;;;;;;5034418;28;20063;-65
2022/10/03 12:39:01;;;;;;;6.45;1.17;;;17.40;99.90;;;;;;5034397;28;20045;-64
2022/10/03 12:42:02;;;;;;;4.75;1.00;;;17.40;99.90;;;;;;5034120;28;20491;-65
2022/10/03 12:44:39;;;;;;;4.25;0.77;;;17.40;99.90;;;;;;5032399;28;20060;-65
2022/10/03 12:47:23;;;;;;;3.42;0.82;;;17.40;99.90;;;;;;5034241;28;20047;-65
2022/10/03 12:49:55;;;;;;;5.20;0.70;;;17.30;99.90;;;;;;5032816;28;20546;-65
2022/10/03 12:52:29;;;;;;;2.78;1.02;;;17.40;99.90;;;;;;5032851;28;20095;-65
2022/10/03 12:54:58;;;;;;;;;;;17.50;99.90;;;;;;5034386;28;20515;-65
2022/10/03 12:57:50;;;;;;;9.45;1.00;;;17.00;99.90;;;;;;5033886;28;19924;-64
2022/10/03 13:00:39;;;;;;;5.38;1.30;;;17.20;99.90;;;;;;5033983;28;20126;-64
2022/10/03 13:03:20;;;;;;;8.38;0.88;;;17.30;99.90;;;;;;5018950;28;20048;-64
2022/10/03 13:06:04;;;;;;;7.18;1.08;;;17.30;99.90;;;;;;5033889;28;20044;-65
2022/10/03 13:08:54;;;;;;;6.10;0.95;;;17.20;99.90;;;;;;5032591;28;20052;-65
2022/10/03 13:11:38;;;;;;;7.10;1.10;;;17.40;99.90;;;;;;5032477;28;20112;-65
2022/10/03 13:14:13;;;;;;;6.53;0.82;;;17.40;99.90;;;;;;5033587;28;20037;-65
2022/10/03 13:16:57;;;;;;;5.07;1.02;;;17.30;99.90;;;;;;5018915;28;20400;-65
2022/10/03 13:19:28;;;;;;;9.80;1.00;;;17.50;99.90;;;;;;5033461;28;20049;-65
2022/10/03 13:22:12;;;;;;;6.35;1.33;;;17.20;99.90;;;;;;5033591;28;20084;-64
2022/10/03 13:24:49;;;;;;;6.20;0.90;;;17.30;99.90;;;;;;5032194;28;20076;-65
2022/10/03 13:27:41;;;;;;;6.90;0.73;;;17.50;99.90;;;;;;5033577;28;20030;-64
2022/10/03 13:30:21;;;;;;;5.90;0.90;;;17.70;99.90;;;;;;5033378;28;20037;-66
2022/10/03 13:33:02;;;;;;;4.75;0.93;;;17.60;99.90;;;;;;5032079;28;20045;-64
2022/10/03 13:38:50;;;;;;;7.28;1.27;;;17.60;99.90;;;;;;5033298;28;20053;-65
2022/10/03 13:41:29;;;;;;;3.72;0.75;;;17.70;99.90;;;;;;5033352;28;20044;-65
2022/10/03 13:44:13;;;;;;;9.60;2.33;;;17.90;99.90;;;;;;5018469;28;20391;-65
2022/10/03 13:46:53;;;;;;;5.70;0.80;;;17.80;99.90;;;;;;5032048;28;20045;-64
2022/10/03 13:49:35;;;;;;;6.45;0.70;;;17.60;99.90;;;;;;5033208;28;20487;-65
2022/10/03 13:52:09;;;;;;;6.80;0.73;;;17.90;99.90;;;;;;5031722;28;20084;-65
2022/10/03 13:55:06;;;;;;;5.20;1.25;;;17.60;99.90;;;;;;5018577;28;20531;-64
2022/10/03 13:57:43;;;;;;;6.07;0.80;;;17.70;99.90;;;;;;5031216;28;20042;-65
2022/10/03 14:00:17;;;;;;;3.95;0.90;;;17.40;99.90;;;;;;5031806;28;20049;-65
2022/10/03 14:03:32;;;;;;;6.20;1.35;;;17.40;99.90;;;;;;5031519;28;20049;-64
2022/10/03 14:06:31;;;;;;;7.10;1.00;;;17.60;99.90;;;;;;5032833;28;20041;-65
2022/10/03 14:09:25;;;;;;;8.00;1.00;;;17.30;99.90;;;;;;5033014;28;20403;-65
2022/10/03 14:12:09;;;;;;;8.05;1.02;;;17.40;99.90;;;;;;5021523;28;20041;-65
2022/10/03 14:14:58;;;;;;;6.47;0.90;;;17.50;99.90;;;;;;5032628;28;20180;-65
2022/10/03 14:18:07;;;;;;;5.25;0.60;;;17.40;99.90;;;;;;5032918;28;20041;-65
2022/10/03 14:21:10;;;;;;;8.73;2.17;;;17.40;99.90;;;;;;5023166;28;20534;-65
2022/10/03 14:24:15;;;;;;;6.63;1.45;;;17.20;99.90;;;;;;5020137;28;20162;-65
2022/10/03 14:26:46;;;;;;;5.85;1.02;;;17.10;99.90;;;;;;5029767;28;20118;-65
2022/10/03 14:29:36;;;;;;;10.63;0.90;;;17.20;99.90;;;;;;5032916;28;20069;-64
2022/10/03 14:32:16;;;;;;;5.28;0.80;;;17.00;99.90;;;;;;5032654;28;20041;-65
2022/10/03 14:35:16;;;;;;;4.15;0.63;;;16.80;99.90;;;;;;5031172;28;20154;-66
2022/10/03 14:37:57;;;;;;;7.63;1.10;;;16.80;99.90;;;;;;5032762;28;20053;-64
2022/10/03 14:40:27;;;;;;;6.15;0.90;;;17.00;99.90;;;;;;5032664;28;20045;-65
2022/10/03 14:43:26;;;;;;;7.18;1.00;;;16.90;99.90;;;;;;5032411;28;20500;-65
2022/10/03 14:45:55;;;;;;;7.47;0.93;;;17.00;99.90;;;;;;5031220;28;20185;-64